sensor_id;sensor_type;location;lat;lon;timestamp;temperature;humidity
80132;SHT30;69442;51.442;10.564;2023-11-19T00:00:09;5.77;84.49
80132;SHT30;69442;51.442;10.564;2023-11-19T00:02:39;5.70;85.01
80132;SHT30;69442;51.442;10.564;2023-11-19T00:05:05;5.73;85.12
80132;SHT30;69442;51.442;10.564;2023-11-19T00:07:37;5.77;84.01
80132;SHT30;69442;51.442;10.564;2023-11-19T00:10:04;5.80;83.90
80132;SHT30;69442;51.442;10.564;2023-11-19T00:12:32;5.84;83.76
80132;SHT30;69442;51.442;10.564;2023-11-19T00:14:57;5.81;84.42
80132;SHT30;69442;51.442;10.564;2023-11-19T00:17:23;5.84;84.15
80132;SHT30;69442;51.442;10.564;2023-11-19T00:19:48;5.70;85.31
80132;SHT30;69442;51.442;10.564;2023-11-19T00:22:16;5.76;84.19
80132;SHT30;69442;51.442;10.564;2023-11-19T00:24:42;5.81;84.01
80132;SHT30;69442;51.442;10.564;2023-11-19T00:27:07;5.83;84.48
80132;SHT30;69442;51.442;10.564;2023-11-19T00:29:33;5.83;84.56
80132;SHT30;69442;51.442;10.564;2023-11-19T00:31:58;5.84;83.93
80132;SHT30;69442;51.442;10.564;2023-11-19T00:34:23;5.74;85.15
80132;SHT30;69442;51.442;10.564;2023-11-19T00:36:49;5.73;85.45
80132;SHT30;69442;51.442;10.564;2023-11-19T00:39:15;5.74;85.28
80132;SHT30;69442;51.442;10.564;2023-11-19T00:41:40;5.71;85.16
80132;SHT30;69442;51.442;10.564;2023-11-19T00:44:06;5.71;84.51
80132;SHT30;69442;51.442;10.564;2023-11-19T00:46:31;5.78;85.28
80132;SHT30;69442;51.442;10.564;2023-11-19T00:48:58;5.69;85.65
80132;SHT30;69442;51.442;10.564;2023-11-19T00:51:25;5.71;85.39
80132;SHT30;69442;51.442;10.564;2023-11-19T00:53:51;5.74;85.53
80132;SHT30;69442;51.442;10.564;2023-11-19T00:56:18;5.81;85.37
80132;SHT30;69442;51.442;10.564;2023-11-19T00:58:44;5.84;84.53
80132;SHT30;69442;51.442;10.564;2023-11-19T01:01:13;5.86;84.75
80132;SHT30;69442;51.442;10.564;2023-11-19T01:03:38;5.84;83.92
80132;SHT30;69442;51.442;10.564;2023-11-19T01:06:04;5.84;83.57
80132;SHT30;69442;51.442;10.564;2023-11-19T01:08:30;5.89;84.47
80132;SHT30;69442;51.442;10.564;2023-11-19T01:10:55;5.93;84.50
80132;SHT30;69442;51.442;10.564;2023-11-19T01:13:20;5.86;85.27
80132;SHT30;69442;51.442;10.564;2023-11-19T01:15:46;5.86;84.76
80132;SHT30;69442;51.442;10.564;2023-11-19T01:18:13;5.89;85.26
80132;SHT30;69442;51.442;10.564;2023-11-19T01:20:38;5.91;83.72
80132;SHT30;69442;51.442;10.564;2023-11-19T01:23:04;5.94;83.77
80132;SHT30;69442;51.442;10.564;2023-11-19T01:25:29;5.95;84.80
80132;SHT30;69442;51.442;10.564;2023-11-19T01:27:55;5.94;84.18
80132;SHT30;69442;51.442;10.564;2023-11-19T01:30:23;5.97;84.94
80132;SHT30;69442;51.442;10.564;2023-11-19T01:32:49;5.97;84.44
80132;SHT30;69442;51.442;10.564;2023-11-19T01:35:15;5.97;84.68
80132;SHT30;69442;51.442;10.564;2023-11-19T01:37:40;6.01;84.97
80132;SHT30;69442;51.442;10.564;2023-11-19T01:40:06;6.01;84.75
80132;SHT30;69442;51.442;10.564;2023-11-19T01:42:39;6.02;84.78
80132;SHT30;69442;51.442;10.564;2023-11-19T01:45:05;6.00;85.82
80132;SHT30;69442;51.442;10.564;2023-11-19T01:47:33;6.00;84.91
80132;SHT30;69442;51.442;10.564;2023-11-19T01:49:59;6.01;85.39
80132;SHT30;69442;51.442;10.564;2023-11-19T01:52:25;6.04;84.81
80132;SHT30;69442;51.442;10.564;2023-11-19T01:54:52;6.08;86.53
80132;SHT30;69442;51.442;10.564;2023-11-19T01:57:20;6.08;87.20
80132;SHT30;69442;51.442;10.564;2023-11-19T01:59:49;6.04;86.01
80132;SHT30;69442;51.442;10.564;2023-11-19T02:02:14;6.05;85.94
80132;SHT30;69442;51.442;10.564;2023-11-19T02:04:41;6.10;85.98
80132;SHT30;69442;51.442;10.564;2023-11-19T02:07:07;6.07;87.79
80132;SHT30;69442;51.442;10.564;2023-11-19T02:09:33;6.07;85.95
80132;SHT30;69442;51.442;10.564;2023-11-19T02:11:58;6.10;85.46
80132;SHT30;69442;51.442;10.564;2023-11-19T02:14:25;6.12;85.53
80132;SHT30;69442;51.442;10.564;2023-11-19T02:16:51;6.15;85.94
80132;SHT30;69442;51.442;10.564;2023-11-19T02:19:19;6.14;86.50
80132;SHT30;69442;51.442;10.564;2023-11-19T02:21:45;6.12;85.40
80132;SHT30;69442;51.442;10.564;2023-11-19T02:24:12;6.15;86.20
80132;SHT30;69442;51.442;10.564;2023-11-19T02:26:45;6.18;86.56
80132;SHT30;69442;51.442;10.564;2023-11-19T02:29:12;6.19;88.12
80132;SHT30;69442;51.442;10.564;2023-11-19T02:31:38;6.17;87.85
80132;SHT30;69442;51.442;10.564;2023-11-19T02:34:03;6.14;85.11
80132;SHT30;69442;51.442;10.564;2023-11-19T02:36:29;6.21;87.70
80132;SHT30;69442;51.442;10.564;2023-11-19T02:38:54;6.21;85.79
80132;SHT30;69442;51.442;10.564;2023-11-19T02:41:20;6.25;87.21
80132;SHT30;69442;51.442;10.564;2023-11-19T02:43:45;6.25;88.43
80132;SHT30;69442;51.442;10.564;2023-11-19T02:46:13;6.21;89.13
80132;SHT30;69442;51.442;10.564;2023-11-19T02:48:39;6.19;89.55
80132;SHT30;69442;51.442;10.564;2023-11-19T02:51:05;6.21;88.28
80132;SHT30;69442;51.442;10.564;2023-11-19T02:53:34;6.28;89.87
80132;SHT30;69442;51.442;10.564;2023-11-19T02:55:59;6.26;90.28
80132;SHT30;69442;51.442;10.564;2023-11-19T02:58:36;6.28;89.93
80132;SHT30;69442;51.442;10.564;2023-11-19T03:01:02;6.30;89.35
80132;SHT30;69442;51.442;10.564;2023-11-19T03:03:37;6.35;89.30
80132;SHT30;69442;51.442;10.564;2023-11-19T03:06:04;6.39;90.72
80132;SHT30;69442;51.442;10.564;2023-11-19T03:08:30;6.36;89.46
80132;SHT30;69442;51.442;10.564;2023-11-19T03:10:55;6.38;90.46
80132;SHT30;69442;51.442;10.564;2023-11-19T03:13:21;6.42;90.70
80132;SHT30;69442;51.442;10.564;2023-11-19T03:15:47;6.45;90.72
80132;SHT30;69442;51.442;10.564;2023-11-19T03:18:12;6.42;90.43
80132;SHT30;69442;51.442;10.564;2023-11-19T03:20:38;6.42;90.48
80132;SHT30;69442;51.442;10.564;2023-11-19T03:23:03;6.47;90.68
80132;SHT30;69442;51.442;10.564;2023-11-19T03:25:29;6.52;90.34
80132;SHT30;69442;51.442;10.564;2023-11-19T03:28:02;6.56;90.79
80132;SHT30;69442;51.442;10.564;2023-11-19T03:30:28;6.56;90.40
80132;SHT30;69442;51.442;10.564;2023-11-19T03:32:57;6.58;90.38
80132;SHT30;69442;51.442;10.564;2023-11-19T03:35:25;6.60;90.38
80132;SHT30;69442;51.442;10.564;2023-11-19T03:37:51;6.62;90.66
80132;SHT30;69442;51.442;10.564;2023-11-19T03:40:17;6.63;90.76
80132;SHT30;69442;51.442;10.564;2023-11-19T03:42:44;6.64;90.33
80132;SHT30;69442;51.442;10.564;2023-11-19T03:45:10;6.69;90.79
80132;SHT30;69442;51.442;10.564;2023-11-19T03:47:35;6.67;90.47
80132;SHT30;69442;51.442;10.564;2023-11-19T03:50:01;6.72;90.45
80132;SHT30;69442;51.442;10.564;2023-11-19T03:52:27;6.72;90.68
80132;SHT30;69442;51.442;10.564;2023-11-19T03:54:52;6.73;90.34
80132;SHT30;69442;51.442;10.564;2023-11-19T03:57:20;6.73;90.25
80132;SHT30;69442;51.442;10.564;2023-11-19T03:59:45;6.76;90.31
80132;SHT30;69442;51.442;10.564;2023-11-19T04:02:11;6.79;90.63
80132;SHT30;69442;51.442;10.564;2023-11-19T04:04:36;6.79;90.46
80132;SHT30;69442;51.442;10.564;2023-11-19T04:07:04;6.79;90.31
80132;SHT30;69442;51.442;10.564;2023-11-19T04:09:29;6.83;90.37
80132;SHT30;69442;51.442;10.564;2023-11-19T04:11:56;6.85;90.42
80132;SHT30;69442;51.442;10.564;2023-11-19T04:14:21;6.85;90.15
80132;SHT30;69442;51.442;10.564;2023-11-19T04:16:47;6.88;90.02
80132;SHT30;69442;51.442;10.564;2023-11-19T04:19:12;6.88;89.96
80132;SHT30;69442;51.442;10.564;2023-11-19T04:21:41;6.90;89.64
80132;SHT30;69442;51.442;10.564;2023-11-19T04:24:08;6.94;90.57
80132;SHT30;69442;51.442;10.564;2023-11-19T04:26:33;6.95;90.72
80132;SHT30;69442;51.442;10.564;2023-11-19T04:28:59;6.95;90.77
80132;SHT30;69442;51.442;10.564;2023-11-19T04:31:29;6.94;90.32
80132;SHT30;69442;51.442;10.564;2023-11-19T04:33:56;6.98;90.56
80132;SHT30;69442;51.442;10.564;2023-11-19T04:36:21;6.99;90.82
80132;SHT30;69442;51.442;10.564;2023-11-19T04:38:49;7.02;90.62
80132;SHT30;69442;51.442;10.564;2023-11-19T04:41:15;7.04;90.66
80132;SHT30;69442;51.442;10.564;2023-11-19T04:43:40;7.05;91.14
80132;SHT30;69442;51.442;10.564;2023-11-19T04:46:05;7.04;90.15
80132;SHT30;69442;51.442;10.564;2023-11-19T04:48:31;7.08;90.57
80132;SHT30;69442;51.442;10.564;2023-11-19T04:50:56;7.09;90.69
80132;SHT30;69442;51.442;10.564;2023-11-19T04:53:22;7.08;90.80
80132;SHT30;69442;51.442;10.564;2023-11-19T04:55:47;7.12;91.20
80132;SHT30;69442;51.442;10.564;2023-11-19T04:58:12;7.11;90.74
80132;SHT30;69442;51.442;10.564;2023-11-19T05:00:38;7.15;90.74
80132;SHT30;69442;51.442;10.564;2023-11-19T05:03:03;7.20;91.30
80132;SHT30;69442;51.442;10.564;2023-11-19T05:05:29;7.20;90.91
80132;SHT30;69442;51.442;10.564;2023-11-19T05:07:54;7.20;91.35
80132;SHT30;69442;51.442;10.564;2023-11-19T05:10:20;7.20;91.01
80132;SHT30;69442;51.442;10.564;2023-11-19T05:12:45;7.22;90.78
80132;SHT30;69442;51.442;10.564;2023-11-19T05:15:11;7.23;90.47
80132;SHT30;69442;51.442;10.564;2023-11-19T05:17:38;7.20;90.70
80132;SHT30;69442;51.442;10.564;2023-11-19T05:20:04;7.22;90.15
80132;SHT30;69442;51.442;10.564;2023-11-19T05:22:30;7.25;90.64
80132;SHT30;69442;51.442;10.564;2023-11-19T05:24:55;7.27;91.10
80132;SHT30;69442;51.442;10.564;2023-11-19T05:27:21;7.30;91.34
80132;SHT30;69442;51.442;10.564;2023-11-19T05:29:47;7.30;91.69
80132;SHT30;69442;51.442;10.564;2023-11-19T05:32:12;7.32;91.61
80132;SHT30;69442;51.442;10.564;2023-11-19T05:34:38;7.32;91.52
80132;SHT30;69442;51.442;10.564;2023-11-19T05:37:03;7.32;91.79
80132;SHT30;69442;51.442;10.564;2023-11-19T05:39:30;7.32;91.40
80132;SHT30;69442;51.442;10.564;2023-11-19T05:41:56;7.33;91.45
80132;SHT30;69442;51.442;10.564;2023-11-19T05:44:21;7.35;91.50
80132;SHT30;69442;51.442;10.564;2023-11-19T05:46:46;7.35;91.29
80132;SHT30;69442;51.442;10.564;2023-11-19T05:49:12;7.36;91.17
80132;SHT30;69442;51.442;10.564;2023-11-19T05:51:41;7.36;91.89
80132;SHT30;69442;51.442;10.564;2023-11-19T05:54:09;7.37;91.86
80132;SHT30;69442;51.442;10.564;2023-11-19T05:56:36;7.40;91.85
80132;SHT30;69442;51.442;10.564;2023-11-19T05:59:02;7.40;91.54
80132;SHT30;69442;51.442;10.564;2023-11-19T06:01:32;7.42;91.67
80132;SHT30;69442;51.442;10.564;2023-11-19T06:03:57;7.42;91.52
80132;SHT30;69442;51.442;10.564;2023-11-19T06:06:23;7.43;91.81
80132;SHT30;69442;51.442;10.564;2023-11-19T06:08:49;7.44;92.07
80132;SHT30;69442;51.442;10.564;2023-11-19T06:11:15;7.44;91.98
80132;SHT30;69442;51.442;10.564;2023-11-19T06:13:44;7.47;92.19
80132;SHT30;69442;51.442;10.564;2023-11-19T06:16:09;7.49;92.49
80132;SHT30;69442;51.442;10.564;2023-11-19T06:18:36;7.49;92.60
80132;SHT30;69442;51.442;10.564;2023-11-19T06:21:02;7.54;92.93
80132;SHT30;69442;51.442;10.564;2023-11-19T06:23:27;7.53;92.52
80132;SHT30;69442;51.442;10.564;2023-11-19T06:25:52;7.54;92.63
80132;SHT30;69442;51.442;10.564;2023-11-19T06:28:18;7.63;93.29
80132;SHT30;69442;51.442;10.564;2023-11-19T06:30:43;7.59;93.14
80132;SHT30;69442;51.442;10.564;2023-11-19T06:33:12;7.61;93.18
80132;SHT30;69442;51.442;10.564;2023-11-19T06:35:38;7.64;93.07
80132;SHT30;69442;51.442;10.564;2023-11-19T06:38:06;7.64;93.02
80132;SHT30;69442;51.442;10.564;2023-11-19T06:40:34;7.64;92.65
80132;SHT30;69442;51.442;10.564;2023-11-19T06:43:00;7.73;93.67
80132;SHT30;69442;51.442;10.564;2023-11-19T06:45:26;7.71;92.65
80132;SHT30;69442;51.442;10.564;2023-11-19T06:47:51;7.77;93.92
80132;SHT30;69442;51.442;10.564;2023-11-19T06:50:17;7.77;94.10
80132;SHT30;69442;51.442;10.564;2023-11-19T06:52:44;7.81;94.38
80132;SHT30;69442;51.442;10.564;2023-11-19T06:55:10;7.73;93.03
80132;SHT30;69442;51.442;10.564;2023-11-19T06:57:36;7.73;92.11
80132;SHT30;69442;51.442;10.564;2023-11-19T07:00:02;7.75;92.68
80132;SHT30;69442;51.442;10.564;2023-11-19T07:02:27;7.78;92.40
80132;SHT30;69442;51.442;10.564;2023-11-19T07:04:53;7.84;93.42
80132;SHT30;69442;51.442;10.564;2023-11-19T07:07:19;7.80;92.73
80132;SHT30;69442;51.442;10.564;2023-11-19T07:09:45;7.80;91.60
80132;SHT30;69442;51.442;10.564;2023-11-19T07:12:10;7.78;91.18
80132;SHT30;69442;51.442;10.564;2023-11-19T07:14:36;7.84;90.70
80132;SHT30;69442;51.442;10.564;2023-11-19T07:17:02;7.88;90.87
80132;SHT30;69442;51.442;10.564;2023-11-19T07:19:27;7.88;90.91
80132;SHT30;69442;51.442;10.564;2023-11-19T07:21:52;7.85;89.61
80132;SHT30;69442;51.442;10.564;2023-11-19T07:24:20;7.99;91.84
80132;SHT30;69442;51.442;10.564;2023-11-19T07:26:47;7.98;92.09
80132;SHT30;69442;51.442;10.564;2023-11-19T07:29:13;8.03;93.29
80132;SHT30;69442;51.442;10.564;2023-11-19T07:31:40;8.02;93.14
80132;SHT30;69442;51.442;10.564;2023-11-19T07:34:05;7.97;91.42
80132;SHT30;69442;51.442;10.564;2023-11-19T07:36:31;8.08;92.78
80132;SHT30;69442;51.442;10.564;2023-11-19T07:38:58;7.97;91.42
80132;SHT30;69442;51.442;10.564;2023-11-19T07:41:23;8.06;92.99
80132;SHT30;69442;51.442;10.564;2023-11-19T07:43:50;8.09;93.04
80132;SHT30;69442;51.442;10.564;2023-11-19T07:46:17;8.02;92.06
80132;SHT30;69442;51.442;10.564;2023-11-19T07:48:45;8.02;89.94
80132;SHT30;69442;51.442;10.564;2023-11-19T07:51:12;8.12;92.27
80132;SHT30;69442;51.442;10.564;2023-11-19T07:53:38;8.21;93.26
80132;SHT30;69442;51.442;10.564;2023-11-19T07:56:04;8.22;93.35
80132;SHT30;69442;51.442;10.564;2023-11-19T07:58:29;8.25;93.83
80132;SHT30;69442;51.442;10.564;2023-11-19T08:00:55;8.19;92.12
80132;SHT30;69442;51.442;10.564;2023-11-19T08:03:20;8.29;94.12
80132;SHT30;69442;51.442;10.564;2023-11-19T08:05:47;8.32;94.14
80132;SHT30;69442;51.442;10.564;2023-11-19T08:08:12;8.30;93.66
80132;SHT30;69442;51.442;10.564;2023-11-19T08:10:38;8.36;94.12
80132;SHT30;69442;51.442;10.564;2023-11-19T08:13:05;8.37;93.82
80132;SHT30;69442;51.442;10.564;2023-11-19T08:15:30;8.37;93.85
80132;SHT30;69442;51.442;10.564;2023-11-19T08:17:56;8.32;92.68
80132;SHT30;69442;51.442;10.564;2023-11-19T08:20:21;8.47;94.26
80132;SHT30;69442;51.442;10.564;2023-11-19T08:22:47;8.49;93.88
80132;SHT30;69442;51.442;10.564;2023-11-19T08:25:12;8.49;93.77
80132;SHT30;69442;51.442;10.564;2023-11-19T08:27:38;8.46;92.95
80132;SHT30;69442;51.442;10.564;2023-11-19T08:30:04;8.51;93.37
80132;SHT30;69442;51.442;10.564;2023-11-19T08:32:31;8.63;94.35
80132;SHT30;69442;51.442;10.564;2023-11-19T08:34:56;8.59;92.80
80132;SHT30;69442;51.442;10.564;2023-11-19T08:37:22;8.71;94.35
80132;SHT30;69442;51.442;10.564;2023-11-19T08:39:48;8.68;94.19
80132;SHT30;69442;51.442;10.564;2023-11-19T08:42:13;8.74;94.54
80132;SHT30;69442;51.442;10.564;2023-11-19T08:44:39;8.77;94.69
80132;SHT30;69442;51.442;10.564;2023-11-19T08:47:05;8.77;94.49
80132;SHT30;69442;51.442;10.564;2023-11-19T08:49:31;8.84;94.68
80132;SHT30;69442;51.442;10.564;2023-11-19T08:51:56;8.85;94.53
80132;SHT30;69442;51.442;10.564;2023-11-19T08:54:21;8.85;94.56
80132;SHT30;69442;51.442;10.564;2023-11-19T08:56:48;8.87;94.30
80132;SHT30;69442;51.442;10.564;2023-11-19T08:59:14;8.78;92.70
80132;SHT30;69442;51.442;10.564;2023-11-19T09:01:40;8.87;92.32
80132;SHT30;69442;51.442;10.564;2023-11-19T09:04:06;8.96;93.26
80132;SHT30;69442;51.442;10.564;2023-11-19T09:06:31;9.05;93.89
80132;SHT30;69442;51.442;10.564;2023-11-19T09:08:57;9.05;93.47
80132;SHT30;69442;51.442;10.564;2023-11-19T09:11:26;9.18;94.14
80132;SHT30;69442;51.442;10.564;2023-11-19T09:13:51;9.12;93.50
80132;SHT30;69442;51.442;10.564;2023-11-19T09:16:17;9.23;93.76
80132;SHT30;69442;51.442;10.564;2023-11-19T09:18:43;9.20;93.23
80132;SHT30;69442;51.442;10.564;2023-11-19T09:21:10;9.24;93.64
80132;SHT30;69442;51.442;10.564;2023-11-19T09:23:36;9.18;90.85
80132;SHT30;69442;51.442;10.564;2023-11-19T09:26:04;9.26;91.07
80132;SHT30;69442;51.442;10.564;2023-11-19T09:28:30;9.24;88.75
80132;SHT30;69442;51.442;10.564;2023-11-19T09:30:56;9.41;90.40
80132;SHT30;69442;51.442;10.564;2023-11-19T09:33:21;9.43;88.94
80132;SHT30;69442;51.442;10.564;2023-11-19T09:35:46;9.51;89.74
80132;SHT30;69442;51.442;10.564;2023-11-19T09:38:14;9.54;88.24
80132;SHT30;69442;51.442;10.564;2023-11-19T09:40:40;9.57;87.50
80132;SHT30;69442;51.442;10.564;2023-11-19T09:43:07;9.65;88.70
80132;SHT30;69442;51.442;10.564;2023-11-19T09:45:47;9.73;88.34
80132;SHT30;69442;51.442;10.564;2023-11-19T09:48:16;9.84;89.32
80132;SHT30;69442;51.442;10.564;2023-11-19T09:50:42;9.95;88.81
80132;SHT30;69442;51.442;10.564;2023-11-19T09:53:07;9.85;86.94
80132;SHT30;69442;51.442;10.564;2023-11-19T09:55:32;10.05;87.41
80132;SHT30;69442;51.442;10.564;2023-11-19T09:57:58;10.02;86.54
80132;SHT30;69442;51.442;10.564;2023-11-19T10:00:26;10.06;86.17
80132;SHT30;69442;51.442;10.564;2023-11-19T10:02:53;10.09;85.55
80132;SHT30;69442;51.442;10.564;2023-11-19T10:05:20;10.16;85.80
80132;SHT30;69442;51.442;10.564;2023-11-19T10:07:46;10.16;85.60
80132;SHT30;69442;51.442;10.564;2023-11-19T10:10:12;10.17;84.80
80132;SHT30;69442;51.442;10.564;2023-11-19T10:12:43;10.24;84.82
80132;SHT30;69442;51.442;10.564;2023-11-19T10:15:17;10.24;84.42
80132;SHT30;69442;51.442;10.564;2023-11-19T10:17:44;10.23;83.90
80132;SHT30;69442;51.442;10.564;2023-11-19T10:20:10;10.21;84.48
80132;SHT30;69442;51.442;10.564;2023-11-19T10:22:38;10.27;84.46
80132;SHT30;69442;51.442;10.564;2023-11-19T10:25:23;10.32;84.30
80132;SHT30;69442;51.442;10.564;2023-11-19T10:27:50;10.29;84.26
80132;SHT30;69442;51.442;10.564;2023-11-19T10:30:31;10.30;84.13
80132;SHT30;69442;51.442;10.564;2023-11-19T10:35:53;10.36;83.95
80132;SHT30;69442;51.442;10.564;2023-11-19T10:38:18;10.36;84.14
80132;SHT30;69442;51.442;10.564;2023-11-19T10:40:44;10.44;84.29
80132;SHT30;69442;51.442;10.564;2023-11-19T10:43:10;10.46;83.81
80132;SHT30;69442;51.442;10.564;2023-11-19T10:45:36;10.46;83.99
80132;SHT30;69442;51.442;10.564;2023-11-19T10:48:03;10.46;83.45
80132;SHT30;69442;51.442;10.564;2023-11-19T10:50:38;10.44;83.62
80132;SHT30;69442;51.442;10.564;2023-11-19T10:53:05;10.46;83.58
80132;SHT30;69442;51.442;10.564;2023-11-19T10:55:32;10.51;83.71
80132;SHT30;69442;51.442;10.564;2023-11-19T10:58:01;10.54;82.97
80132;SHT30;69442;51.442;10.564;2023-11-19T11:00:36;10.60;82.56
80132;SHT30;69442;51.442;10.564;2023-11-19T11:03:09;10.63;81.83
80132;SHT30;69442;51.442;10.564;2023-11-19T11:05:36;10.67;81.32
80132;SHT30;69442;51.442;10.564;2023-11-19T11:08:06;10.65;81.45
80132;SHT30;69442;51.442;10.564;2023-11-19T11:10:35;10.69;80.91
80132;SHT30;69442;51.442;10.564;2023-11-19T11:13:05;10.74;80.63
80132;SHT30;69442;51.442;10.564;2023-11-19T11:15:31;10.75;79.95
80132;SHT30;69442;51.442;10.564;2023-11-19T11:18:00;10.76;80.18
80132;SHT30;69442;51.442;10.564;2023-11-19T11:20:28;10.82;79.03
80132;SHT30;69442;51.442;10.564;2023-11-19T11:28:54;10.91;79.41
80132;SHT30;69442;51.442;10.564;2023-11-19T11:34:53;10.95;77.84
80132;SHT30;69442;51.442;10.564;2023-11-19T11:39:57;10.98;80.27
80132;SHT30;69442;51.442;10.564;2023-11-19T11:50:14;11.03;77.84
80132;SHT30;69442;51.442;10.564;2023-11-19T11:55:35;11.05;78.52
80132;SHT30;69442;51.442;10.564;2023-11-19T11:58:02;11.06;78.30
80132;SHT30;69442;51.442;10.564;2023-11-19T12:00:31;11.06;77.45
80132;SHT30;69442;51.442;10.564;2023-11-19T12:02:59;11.09;76.88
80132;SHT30;69442;51.442;10.564;2023-11-19T12:05:25;11.10;76.46
80132;SHT30;69442;51.442;10.564;2023-11-19T12:08:01;11.10;76.05
80132;SHT30;69442;51.442;10.564;2023-11-19T12:10:29;11.15;77.08
80132;SHT30;69442;51.442;10.564;2023-11-19T12:13:00;11.15;77.87
80132;SHT30;69442;51.442;10.564;2023-11-19T12:15:26;11.13;79.94
80132;SHT30;69442;51.442;10.564;2023-11-19T12:17:53;11.15;79.26
80132;SHT30;69442;51.442;10.564;2023-11-19T12:20:24;11.16;79.38
80132;SHT30;69442;51.442;10.564;2023-11-19T12:22:50;11.13;79.23
80132;SHT30;69442;51.442;10.564;2023-11-19T12:25:17;11.16;79.51
80132;SHT30;69442;51.442;10.564;2023-11-19T12:27:50;11.17;80.39
80132;SHT30;69442;51.442;10.564;2023-11-19T12:30:23;11.15;79.64
80132;SHT30;69442;51.442;10.564;2023-11-19T12:32:50;11.15;79.73
80132;SHT30;69442;51.442;10.564;2023-11-19T12:35:16;11.15;80.02
80132;SHT30;69442;51.442;10.564;2023-11-19T12:37:48;11.13;79.38
80132;SHT30;69442;51.442;10.564;2023-11-19T12:40:19;11.13;79.75
80132;SHT30;69442;51.442;10.564;2023-11-19T12:42:48;11.09;80.47
80132;SHT30;69442;51.442;10.564;2023-11-19T12:45:14;11.09;79.29
80132;SHT30;69442;51.442;10.564;2023-11-19T12:47:42;11.09;79.47
80132;SHT30;69442;51.442;10.564;2023-11-19T12:50:11;11.05;79.26
80132;SHT30;69442;51.442;10.564;2023-11-19T12:52:37;11.02;79.15
80132;SHT30;69442;51.442;10.564;2023-11-19T12:55:04;11.00;79.85
80132;SHT30;69442;51.442;10.564;2023-11-19T12:57:38;10.99;79.80
80132;SHT30;69442;51.442;10.564;2023-11-19T13:00:05;10.99;79.49
80132;SHT30;69442;51.442;10.564;2023-11-19T13:02:45;10.98;79.60
80132;SHT30;69442;51.442;10.564;2023-11-19T13:07:57;11.02;79.02
80132;SHT30;69442;51.442;10.564;2023-11-19T13:10:23;11.00;79.91
80132;SHT30;69442;51.442;10.564;2023-11-19T13:13:04;11.00;79.87
80132;SHT30;69442;51.442;10.564;2023-11-19T13:15:30;11.00;80.17
80132;SHT30;69442;51.442;10.564;2023-11-19T13:17:56;10.99;81.29
80132;SHT30;69442;51.442;10.564;2023-11-19T13:20:21;11.03;81.11
80132;SHT30;69442;51.442;10.564;2023-11-19T13:22:57;11.02;80.25
80132;SHT30;69442;51.442;10.564;2023-11-19T13:25:22;11.00;80.12
80132;SHT30;69442;51.442;10.564;2023-11-19T13:27:48;11.03;81.32
80132;SHT30;69442;51.442;10.564;2023-11-19T13:30:13;11.02;81.39
80132;SHT30;69442;51.442;10.564;2023-11-19T13:32:39;11.02;80.93
80132;SHT30;69442;51.442;10.564;2023-11-19T13:35:05;11.02;80.59
80132;SHT30;69442;51.442;10.564;2023-11-19T13:37:31;11.07;80.84
80132;SHT30;69442;51.442;10.564;2023-11-19T13:39:56;11.06;80.16
80132;SHT30;69442;51.442;10.564;2023-11-19T13:42:21;11.07;81.66
80132;SHT30;69442;51.442;10.564;2023-11-19T13:44:47;11.09;80.54
80132;SHT30;69442;51.442;10.564;2023-11-19T13:47:12;11.12;81.57
80132;SHT30;69442;51.442;10.564;2023-11-19T13:49:39;11.15;80.80
80132;SHT30;69442;51.442;10.564;2023-11-19T13:52:05;11.17;81.90
80132;SHT30;69442;51.442;10.564;2023-11-19T13:54:30;11.19;82.39
80132;SHT30;69442;51.442;10.564;2023-11-19T13:56:56;11.20;81.68
80132;SHT30;69442;51.442;10.564;2023-11-19T13:59:23;11.24;81.60
80132;SHT30;69442;51.442;10.564;2023-11-19T14:01:48;11.22;80.17
80132;SHT30;69442;51.442;10.564;2023-11-19T14:04:14;11.28;82.16
80132;SHT30;69442;51.442;10.564;2023-11-19T14:06:40;11.24;78.65
80132;SHT30;69442;51.442;10.564;2023-11-19T14:09:07;11.28;78.85
80132;SHT30;69442;51.442;10.564;2023-11-19T14:11:32;11.28;79.18
80132;SHT30;69442;51.442;10.564;2023-11-19T14:13:58;11.31;81.20
80132;SHT30;69442;51.442;10.564;2023-11-19T14:16:26;11.30;78.93
80132;SHT30;69442;51.442;10.564;2023-11-19T14:18:52;11.34;81.88
80132;SHT30;69442;51.442;10.564;2023-11-19T14:21:18;11.30;79.96
80132;SHT30;69442;51.442;10.564;2023-11-19T14:23:44;11.33;80.97
80132;SHT30;69442;51.442;10.564;2023-11-19T14:26:10;11.27;77.52
80132;SHT30;69442;51.442;10.564;2023-11-19T14:28:35;11.31;79.23
80132;SHT30;69442;51.442;10.564;2023-11-19T14:31:01;11.30;78.50
80132;SHT30;69442;51.442;10.564;2023-11-19T14:33:26;11.27;78.70
80132;SHT30;69442;51.442;10.564;2023-11-19T14:35:52;11.23;77.24
80132;SHT30;69442;51.442;10.564;2023-11-19T14:38:17;11.24;80.33
80132;SHT30;69442;51.442;10.564;2023-11-19T14:40:43;11.20;80.73
80132;SHT30;69442;51.442;10.564;2023-11-19T14:43:09;11.15;75.52
80132;SHT30;69442;51.442;10.564;2023-11-19T14:45:37;11.10;75.16
80132;SHT30;69442;51.442;10.564;2023-11-19T14:48:02;11.10;76.68
80132;SHT30;69442;51.442;10.564;2023-11-19T14:50:28;11.07;76.79
80132;SHT30;69442;51.442;10.564;2023-11-19T14:52:53;11.06;75.68
80132;SHT30;69442;51.442;10.564;2023-11-19T14:55:19;11.03;78.16
80132;SHT30;69442;51.442;10.564;2023-11-19T14:57:44;11.00;76.79
80132;SHT30;69442;51.442;10.564;2023-11-19T15:00:10;11.05;78.93
80132;SHT30;69442;51.442;10.564;2023-11-19T15:02:40;10.98;75.10
80132;SHT30;69442;51.442;10.564;2023-11-19T15:05:06;10.99;76.83
80132;SHT30;69442;51.442;10.564;2023-11-19T15:07:32;11.00;77.89
80132;SHT30;69442;51.442;10.564;2023-11-19T15:09:57;10.98;78.32
80132;SHT30;69442;51.442;10.564;2023-11-19T15:12:23;10.98;78.23
80132;SHT30;69442;51.442;10.564;2023-11-19T15:14:48;10.93;77.07
80132;SHT30;69442;51.442;10.564;2023-11-19T15:17:13;10.92;76.77
80132;SHT30;69442;51.442;10.564;2023-11-19T15:19:39;10.95;77.42
80132;SHT30;69442;51.442;10.564;2023-11-19T15:22:06;10.93;76.85
80132;SHT30;69442;51.442;10.564;2023-11-19T15:24:31;10.93;78.42
80132;SHT30;69442;51.442;10.564;2023-11-19T15:26:57;10.89;78.29
80132;SHT30;69442;51.442;10.564;2023-11-19T15:29:22;10.85;76.75
80132;SHT30;69442;51.442;10.564;2023-11-19T15:31:48;10.86;77.54
80132;SHT30;69442;51.442;10.564;2023-11-19T15:34:14;10.83;76.73
80132;SHT30;69442;51.442;10.564;2023-11-19T15:36:39;10.79;76.53
80132;SHT30;69442;51.442;10.564;2023-11-19T15:39:05;10.78;77.63
80132;SHT30;69442;51.442;10.564;2023-11-19T15:41:30;10.74;76.64
80132;SHT30;69442;51.442;10.564;2023-11-19T15:43:57;10.71;77.43
80132;SHT30;69442;51.442;10.564;2023-11-19T15:46:22;10.72;79.71
80132;SHT30;69442;51.442;10.564;2023-11-19T15:48:48;10.63;76.57